AAL914 SKCG-KMIA
Flight info
| Callsign | AAL914 |
|---|---|
| Flight time | 2h 27m |
| Altitude | 38000 |
| Route | TAKOD DCT ZEUSS VIICE2 |
| Aircraft | B738/M-SDE2E3FGHIRWXY/LB1 |
Departure
| Time | 2026-04-25 21:00 |
|---|---|
| Airport | Rafael Nuñez International Airport (SKCG) |
Arrival
| Time | 2026-04-25 23:28 |
|---|---|
| Airport | Miami International Airport (KMIA) |
| Time | Latitude | Longitude | Altitude | Speed | Heading |
|---|---|---|---|---|---|
| 2026-04-25 20:42 | 10.44687 | -75.51549 | 15 ft | 0 kts | 271° |
| 2026-04-25 20:49 | 10.44686 | -75.51533 | 15 ft | 4 kts | 273° |
| 2026-04-25 20:49 | 10.44693 | -75.51503 | 18 ft | 4 kts | 211° |
| 2026-04-25 20:49 | 10.44708 | -75.51497 | 15 ft | 4 kts | 184° |
| 2026-04-25 20:49 | 10.44721 | -75.51497 | 18 ft | 1 kts | 182° |
| 2026-04-25 20:50 | 10.44722 | -75.51496 | 18 ft | 2 kts | 182° |
| 2026-04-25 20:54 | 10.44720 | -75.51497 | 15 ft | 2 kts | 182° |
| 2026-04-25 20:54 | 10.44661 | -75.51488 | 15 ft | 12 kts | 148° |
| 2026-04-25 20:55 | 10.44625 | -75.51436 | 15 ft | 9 kts | 96° |
| 2026-04-25 20:55 | 10.44617 | -75.51377 | 15 ft | 8 kts | 109° |
| 2026-04-25 20:55 | 10.44581 | -75.51354 | 15 ft | 5 kts | 181° |
| 2026-04-25 20:55 | 10.44551 | -75.51336 | 15 ft | 5 kts | 117° |
| 2026-04-25 20:56 | 10.44535 | -75.51302 | 16 ft | 6 kts | 136° |
| 2026-04-25 20:56 | 10.44499 | -75.51288 | 18 ft | 5 kts | 160° |
| 2026-04-25 20:56 | 10.44462 | -75.51280 | 15 ft | 5 kts | 176° |
| 2026-04-25 20:56 | 10.44422 | -75.51280 | 15 ft | 7 kts | 181° |
| 2026-04-25 20:57 | 10.44364 | -75.51281 | 15 ft | 10 kts | 181° |
| 2026-04-25 20:57 | 10.44279 | -75.51283 | 14 ft | 14 kts | 183° |
| 2026-04-25 20:57 | 10.44167 | -75.51285 | 12 ft | 18 kts | 178° |
| 2026-04-25 20:57 | 10.44038 | -75.51289 | 13 ft | 19 kts | 185° |
| 2026-04-25 20:58 | 10.43902 | -75.51296 | 14 ft | 21 kts | 181° |
| 2026-04-25 20:58 | 10.43752 | -75.51308 | 13 ft | 22 kts | 185° |
| 2026-04-25 20:58 | 10.43592 | -75.51321 | 15 ft | 23 kts | 184° |
| 2026-04-25 20:58 | 10.43435 | -75.51322 | 17 ft | 23 kts | 179° |
| 2026-04-25 20:59 | 10.43285 | -75.51328 | 17 ft | 22 kts | 181° |
| 2026-04-25 20:59 | 10.43152 | -75.51247 | 16 ft | 23 kts | 140° |
| 2026-04-25 20:59 | 10.43067 | -75.51267 | 16 ft | 12 kts | 256° |
| 2026-04-25 20:59 | 10.43097 | -75.51337 | 17 ft | 12 kts | 346° |
| 2026-04-25 21:00 | 10.43379 | -75.51327 | 18 ft | 86 kts | 1° |
| 2026-04-25 21:00 | 10.43910 | -75.51306 | 15 ft | 143 kts | 2° |
| 2026-04-25 21:00 | 10.46810 | -75.51494 | 1880 ft | 198 kts | 340° |
| 2026-04-25 21:01 | 10.48157 | -75.51944 | 2829 ft | 207 kts | 341° |
| 2026-04-25 21:01 | 10.49560 | -75.52409 | 3672 ft | 217 kts | 341° |
| 2026-04-25 21:01 | 10.51036 | -75.52869 | 4359 ft | 236 kts | 343° |
| 2026-04-25 21:01 | 10.52731 | -75.53349 | 4666 ft | 266 kts | 344° |
| 2026-04-25 21:02 | 10.54552 | -75.53850 | 5412 ft | 275 kts | 344° |
| 2026-04-25 21:02 | 10.56408 | -75.54358 | 6326 ft | 277 kts | 343° |
| 2026-04-25 21:02 | 10.58279 | -75.54871 | 7199 ft | 280 kts | 343° |
| 2026-04-25 21:02 | 10.60170 | -75.55391 | 8037 ft | 284 kts | 343° |
| 2026-04-25 21:03 | 10.62088 | -75.55919 | 8877 ft | 287 kts | 343° |
| 2026-04-25 21:03 | 10.64032 | -75.56456 | 9739 ft | 291 kts | 343° |
| 2026-04-25 21:03 | 10.66001 | -75.57001 | 10414 ft | 300 kts | 343° |
| 2026-04-25 21:03 | 10.68068 | -75.57574 | 10616 ft | 325 kts | 343° |
| 2026-04-25 21:04 | 10.70334 | -75.58204 | 10801 ft | 349 kts | 343° |
| 2026-04-25 21:04 | 10.72723 | -75.58867 | 11222 ft | 361 kts | 343° |
| 2026-04-25 21:04 | 10.75157 | -75.59541 | 11869 ft | 365 kts | 343° |
| 2026-04-25 21:04 | 10.77609 | -75.60220 | 12587 ft | 367 kts | 343° |
| 2026-04-25 21:05 | 10.80088 | -75.60907 | 13258 ft | 371 kts | 343° |
| 2026-04-25 21:05 | 10.82596 | -75.61602 | 13879 ft | 375 kts | 343° |
| 2026-04-25 21:05 | 10.85123 | -75.62303 | 14449 ft | 379 kts | 343° |
| 2026-04-25 21:05 | 10.87673 | -75.63011 | 15033 ft | 382 kts | 343° |
| 2026-04-25 21:06 | 10.90255 | -75.63728 | 15607 ft | 385 kts | 343° |
| 2026-04-25 21:06 | 10.92854 | -75.64450 | 16160 ft | 389 kts | 343° |
| 2026-04-25 21:06 | 10.95481 | -75.65180 | 16713 ft | 393 kts | 343° |
| 2026-04-25 21:06 | 10.97232 | -75.65667 | 17075 ft | 395 kts | 343° |
| 2026-04-25 21:07 | 11.00800 | -75.66659 | 17798 ft | 400 kts | 343° |
| 2026-04-25 21:07 | 11.03487 | -75.67406 | 18288 ft | 403 kts | 343° |
| 2026-04-25 21:07 | 11.06210 | -75.68163 | 18742 ft | 406 kts | 344° |
| 2026-04-25 21:07 | 11.08944 | -75.68923 | 19207 ft | 408 kts | 344° |
| 2026-04-25 21:08 | 11.11693 | -75.69688 | 19668 ft | 410 kts | 344° |
| 2026-04-25 21:08 | 11.14419 | -75.70446 | 20120 ft | 412 kts | 344° |
| 2026-04-25 21:08 | 11.17202 | -75.71220 | 20563 ft | 415 kts | 344° |
| 2026-04-25 21:08 | 11.20030 | -75.72008 | 21001 ft | 418 kts | 344° |
| 2026-04-25 21:09 | 11.25636 | -75.73568 | 21847 ft | 422 kts | 345° |
| 2026-04-25 21:09 | 11.28477 | -75.74360 | 22259 ft | 425 kts | 345° |
| 2026-04-25 21:09 | 11.31333 | -75.75155 | 22660 ft | 427 kts | 345° |
| 2026-04-25 21:10 | 11.34208 | -75.75956 | 23055 ft | 429 kts | 345° |
| 2026-04-25 21:10 | 11.37097 | -75.76761 | 23441 ft | 431 kts | 345° |
| 2026-04-25 21:10 | 11.40009 | -75.77573 | 23756 ft | 434 kts | 345° |
| 2026-04-25 21:10 | 11.42927 | -75.78387 | 24047 ft | 436 kts | 345° |
| 2026-04-25 21:11 | 11.45867 | -75.79207 | 24338 ft | 439 kts | 345° |
| 2026-04-25 21:11 | 11.48817 | -75.80030 | 24638 ft | 441 kts | 344° |
| 2026-04-25 21:11 | 11.51751 | -75.80849 | 24933 ft | 443 kts | 344° |
| 2026-04-25 21:11 | 11.54732 | -75.81681 | 25223 ft | 445 kts | 344° |
| 2026-04-25 21:12 | 11.57728 | -75.82517 | 25508 ft | 447 kts | 344° |
| 2026-04-25 21:12 | 11.60735 | -75.83357 | 25788 ft | 450 kts | 344° |
| 2026-04-25 21:12 | 11.63766 | -75.84203 | 26065 ft | 452 kts | 343° |
| 2026-04-25 21:12 | 11.65770 | -75.84763 | 26254 ft | 453 kts | 343° |
| 2026-04-25 21:13 | 11.69850 | -75.85903 | 26615 ft | 456 kts | 343° |
| 2026-04-25 21:13 | 11.72917 | -75.86760 | 26870 ft | 458 kts | 343° |
| 2026-04-25 21:13 | 11.75997 | -75.87621 | 27140 ft | 460 kts | 343° |
| 2026-04-25 21:13 | 11.79088 | -75.88486 | 27398 ft | 462 kts | 343° |
| 2026-04-25 21:14 | 11.82196 | -75.89355 | 27649 ft | 464 kts | 343° |
| 2026-04-25 21:14 | 11.85312 | -75.90226 | 27890 ft | 466 kts | 343° |
| 2026-04-25 21:14 | 11.88442 | -75.91102 | 28134 ft | 467 kts | 343° |
| 2026-04-25 21:14 | 11.91583 | -75.91981 | 28362 ft | 469 kts | 343° |
| 2026-04-25 21:15 | 11.94740 | -75.92865 | 28596 ft | 471 kts | 343° |
| 2026-04-25 21:15 | 11.97912 | -75.93753 | 28814 ft | 473 kts | 342° |
| 2026-04-25 21:15 | 12.01054 | -75.94633 | 29041 ft | 475 kts | 342° |
| 2026-04-25 21:15 | 12.04244 | -75.95527 | 29249 ft | 476 kts | 342° |
| 2026-04-25 21:16 | 12.07489 | -75.96436 | 29459 ft | 478 kts | 342° |
| 2026-04-25 21:16 | 12.10662 | -75.97325 | 29654 ft | 480 kts | 342° |
| 2026-04-25 21:16 | 12.13890 | -75.98230 | 29875 ft | 481 kts | 342° |
| 2026-04-25 21:16 | 12.17127 | -75.99138 | 30126 ft | 481 kts | 342° |
| 2026-04-25 21:17 | 12.20351 | -76.00041 | 30394 ft | 480 kts | 342° |
| 2026-04-25 21:17 | 12.23563 | -76.00942 | 30686 ft | 479 kts | 342° |
| 2026-04-25 21:17 | 12.26774 | -76.01842 | 30951 ft | 478 kts | 342° |
| 2026-04-25 21:17 | 12.29995 | -76.02746 | 31202 ft | 478 kts | 342° |
| 2026-04-25 21:18 | 12.33208 | -76.03649 | 31481 ft | 478 kts | 342° |
| 2026-04-25 21:18 | 12.36409 | -76.04547 | 31772 ft | 477 kts | 342° |
| 2026-04-25 21:18 | 12.39607 | -76.05446 | 32052 ft | 477 kts | 341° |
| 2026-04-25 21:18 | 12.42807 | -76.06345 | 32327 ft | 476 kts | 341° |
| 2026-04-25 21:19 | 12.46000 | -76.07242 | 32608 ft | 476 kts | 341° |
| 2026-04-25 21:19 | 12.49196 | -76.08141 | 32901 ft | 475 kts | 341° |
| 2026-04-25 21:19 | 12.52389 | -76.09039 | 33193 ft | 475 kts | 341° |
| 2026-04-25 21:19 | 12.55574 | -76.09935 | 33472 ft | 475 kts | 341° |
| 2026-04-25 21:20 | 12.58762 | -76.10832 | 33750 ft | 475 kts | 341° |
| 2026-04-25 21:20 | 12.60871 | -76.11425 | 33928 ft | 475 kts | 341° |
| 2026-04-25 21:20 | 12.65089 | -76.12612 | 34252 ft | 474 kts | 341° |
| 2026-04-25 21:20 | 12.68274 | -76.13509 | 34473 ft | 475 kts | 341° |
| 2026-04-25 21:21 | 12.71459 | -76.14406 | 34699 ft | 475 kts | 341° |
| 2026-04-25 21:21 | 12.74645 | -76.15304 | 34950 ft | 474 kts | 341° |
| 2026-04-25 21:21 | 12.77829 | -76.16200 | 35205 ft | 474 kts | 341° |
| 2026-04-25 21:21 | 12.81011 | -76.17097 | 35432 ft | 474 kts | 341° |
| 2026-04-25 21:22 | 12.84188 | -76.17993 | 35683 ft | 473 kts | 341° |
| 2026-04-25 21:22 | 12.87361 | -76.18888 | 35921 ft | 473 kts | 341° |
| 2026-04-25 21:22 | 12.90537 | -76.19783 | 36163 ft | 473 kts | 341° |
| 2026-04-25 21:22 | 12.93699 | -76.20675 | 36406 ft | 472 kts | 341° |
| 2026-04-25 21:23 | 12.96866 | -76.21569 | 36655 ft | 471 kts | 341° |
| 2026-04-25 21:23 | 13.00036 | -76.22464 | 36888 ft | 471 kts | 341° |
| 2026-04-25 21:23 | 13.03190 | -76.23355 | 37133 ft | 470 kts | 341° |
| 2026-04-25 21:23 | 13.06339 | -76.24244 | 37381 ft | 469 kts | 341° |
| 2026-04-25 21:24 | 13.09478 | -76.25131 | 37607 ft | 468 kts | 341° |
| 2026-04-25 21:24 | 13.12579 | -76.26007 | 37818 ft | 468 kts | 341° |
| 2026-04-25 21:24 | 13.18882 | -76.27790 | 37876 ft | 471 kts | 341° |
| 2026-04-25 21:25 | 13.25171 | -76.29568 | 37870 ft | 466 kts | 341° |
| 2026-04-25 21:25 | 13.31401 | -76.31330 | 37877 ft | 462 kts | 341° |
| 2026-04-25 21:26 | 13.37584 | -76.33080 | 37875 ft | 460 kts | 341° |
| 2026-04-25 21:26 | 13.43747 | -76.34827 | 37883 ft | 458 kts | 341° |
| 2026-04-25 21:27 | 13.49893 | -76.36570 | 37884 ft | 458 kts | 341° |
| 2026-04-25 21:27 | 13.56049 | -76.38316 | 37884 ft | 459 kts | 341° |
| 2026-04-25 21:28 | 13.62219 | -76.40068 | 37883 ft | 461 kts | 341° |
| 2026-04-25 21:28 | 13.68426 | -76.41830 | 37883 ft | 463 kts | 341° |
| 2026-04-25 21:29 | 13.74606 | -76.43586 | 37883 ft | 464 kts | 341° |
| 2026-04-25 21:29 | 13.80847 | -76.45360 | 37884 ft | 466 kts | 341° |
| 2026-04-25 21:30 | 13.87105 | -76.47139 | 37880 ft | 467 kts | 341° |
| 2026-04-25 21:30 | 13.92308 | -76.48619 | 37883 ft | 467 kts | 341° |
| 2026-04-25 21:31 | 13.99638 | -76.50706 | 37883 ft | 467 kts | 341° |
| 2026-04-25 21:31 | 14.05896 | -76.52488 | 37882 ft | 466 kts | 341° |
| 2026-04-25 21:32 | 14.12150 | -76.54270 | 37882 ft | 466 kts | 341° |
| 2026-04-25 21:32 | 14.18391 | -76.56050 | 37886 ft | 465 kts | 341° |
| 2026-04-25 21:33 | 14.24621 | -76.57828 | 37886 ft | 464 kts | 341° |
| 2026-04-25 21:33 | 14.30835 | -76.59602 | 37888 ft | 463 kts | 341° |
| 2026-04-25 21:34 | 14.37000 | -76.61363 | 37886 ft | 462 kts | 341° |
| 2026-04-25 21:34 | 14.43182 | -76.63130 | 37883 ft | 460 kts | 341° |
| 2026-04-25 21:35 | 14.49350 | -76.64894 | 37886 ft | 459 kts | 341° |
| 2026-04-25 21:35 | 14.55502 | -76.66655 | 37885 ft | 458 kts | 341° |
| 2026-04-25 21:36 | 14.61643 | -76.68413 | 37883 ft | 457 kts | 341° |
| 2026-04-25 21:36 | 14.67772 | -76.70169 | 37887 ft | 456 kts | 341° |
| 2026-04-25 21:37 | 14.71818 | -76.71329 | 37881 ft | 456 kts | 341° |
| 2026-04-25 21:37 | 14.79986 | -76.73672 | 37882 ft | 455 kts | 341° |
| 2026-04-25 21:38 | 14.86097 | -76.75426 | 37888 ft | 455 kts | 341° |
| 2026-04-25 21:38 | 14.92197 | -76.77178 | 37888 ft | 455 kts | 341° |
| 2026-04-25 21:39 | 14.98254 | -76.78918 | 37888 ft | 455 kts | 341° |
| 2026-04-25 21:39 | 15.04363 | -76.80674 | 37889 ft | 455 kts | 341° |
| 2026-04-25 21:40 | 15.10468 | -76.82431 | 37887 ft | 455 kts | 341° |
| 2026-04-25 21:40 | 15.15549 | -76.83893 | 37891 ft | 455 kts | 341° |
| 2026-04-25 21:41 | 15.21650 | -76.85650 | 37891 ft | 455 kts | 341° |
| 2026-04-25 21:41 | 15.27753 | -76.87409 | 37887 ft | 455 kts | 341° |
| 2026-04-25 21:42 | 15.33858 | -76.89169 | 37890 ft | 455 kts | 341° |
| 2026-04-25 21:42 | 15.39971 | -76.90933 | 37879 ft | 455 kts | 341° |
| 2026-04-25 21:43 | 15.46067 | -76.92693 | 37891 ft | 455 kts | 341° |
| 2026-04-25 21:43 | 15.52169 | -76.94456 | 37894 ft | 455 kts | 341° |
| 2026-04-25 21:44 | 15.58267 | -76.96218 | 37894 ft | 455 kts | 341° |
| 2026-04-25 21:45 | 15.67378 | -76.98854 | 37888 ft | 455 kts | 341° |
| 2026-04-25 21:45 | 15.73480 | -77.00621 | 37892 ft | 455 kts | 341° |
| 2026-04-25 21:46 | 15.79590 | -77.02390 | 37894 ft | 456 kts | 341° |
| 2026-04-25 21:46 | 15.85699 | -77.04161 | 37896 ft | 456 kts | 341° |
| 2026-04-25 21:47 | 15.91814 | -77.05935 | 37895 ft | 457 kts | 340° |
| 2026-04-25 21:47 | 15.97939 | -77.07713 | 37896 ft | 457 kts | 340° |
| 2026-04-25 21:48 | 16.04071 | -77.09494 | 37891 ft | 457 kts | 340° |
| 2026-04-25 21:48 | 16.10205 | -77.11276 | 37893 ft | 458 kts | 340° |
| 2026-04-25 21:49 | 16.16351 | -77.13064 | 37892 ft | 458 kts | 340° |
| 2026-04-25 21:49 | 16.22495 | -77.14851 | 37896 ft | 459 kts | 340° |
| 2026-04-25 21:50 | 16.28612 | -77.16632 | 37894 ft | 459 kts | 340° |
| 2026-04-25 21:50 | 16.34763 | -77.18425 | 37895 ft | 459 kts | 340° |
| 2026-04-25 21:51 | 16.40923 | -77.20221 | 37896 ft | 459 kts | 340° |
| 2026-04-25 21:51 | 16.47081 | -77.22018 | 37896 ft | 459 kts | 340° |
| 2026-04-25 21:52 | 16.53291 | -77.23657 | 37895 ft | 462 kts | 343° |
| 2026-04-25 21:52 | 16.59612 | -77.24909 | 37896 ft | 462 kts | 345° |
| 2026-04-25 21:53 | 16.65941 | -77.26101 | 37893 ft | 462 kts | 345° |
| 2026-04-25 21:53 | 16.72234 | -77.27322 | 37894 ft | 462 kts | 344° |
| 2026-04-25 21:54 | 16.78544 | -77.28576 | 37894 ft | 461 kts | 344° |
| 2026-04-25 21:54 | 16.84843 | -77.29838 | 37895 ft | 461 kts | 344° |
| 2026-04-25 21:55 | 16.91137 | -77.31101 | 37897 ft | 461 kts | 344° |
| 2026-04-25 21:55 | 16.97433 | -77.32364 | 37898 ft | 460 kts | 344° |
| 2026-04-25 21:56 | 17.03719 | -77.33625 | 37894 ft | 460 kts | 344° |
| 2026-04-25 21:56 | 17.10012 | -77.34888 | 37895 ft | 460 kts | 343° |
| 2026-04-25 21:57 | 17.16296 | -77.36150 | 37898 ft | 460 kts | 343° |
| 2026-04-25 21:57 | 17.22534 | -77.37403 | 37897 ft | 459 kts | 343° |
| 2026-04-25 21:58 | 17.28810 | -77.38666 | 37896 ft | 459 kts | 343° |
| 2026-04-25 21:58 | 17.35091 | -77.39930 | 37894 ft | 459 kts | 343° |
| 2026-04-25 21:59 | 17.41361 | -77.41193 | 37892 ft | 459 kts | 343° |
| 2026-04-25 21:59 | 17.47639 | -77.42458 | 37896 ft | 459 kts | 343° |
| 2026-04-25 22:00 | 17.57044 | -77.44356 | 37901 ft | 458 kts | 343° |
| 2026-04-25 22:00 | 17.63302 | -77.45619 | 37906 ft | 458 kts | 343° |
| 2026-04-25 22:01 | 17.69560 | -77.46883 | 37913 ft | 458 kts | 343° |
| 2026-04-25 22:01 | 17.74763 | -77.47935 | 37892 ft | 457 kts | 343° |
| 2026-04-25 22:02 | 17.82068 | -77.49413 | 37903 ft | 457 kts | 343° |
| 2026-04-25 22:02 | 17.88265 | -77.50667 | 37909 ft | 456 kts | 343° |
| 2026-04-25 22:03 | 17.94490 | -77.51928 | 37914 ft | 455 kts | 343° |
| 2026-04-25 22:03 | 18.00709 | -77.53189 | 37911 ft | 454 kts | 342° |
| 2026-04-25 22:04 | 18.06909 | -77.54447 | 37915 ft | 453 kts | 342° |
| 2026-04-25 22:04 | 18.13084 | -77.55701 | 37924 ft | 452 kts | 342° |
| 2026-04-25 22:05 | 18.19258 | -77.56956 | 37925 ft | 451 kts | 342° |
| 2026-04-25 22:05 | 18.25380 | -77.58201 | 37924 ft | 450 kts | 342° |
| 2026-04-25 22:06 | 18.31530 | -77.59453 | 37922 ft | 450 kts | 342° |
| 2026-04-25 22:06 | 18.37681 | -77.60705 | 37916 ft | 450 kts | 342° |
| 2026-04-25 22:07 | 18.42824 | -77.61753 | 37904 ft | 449 kts | 342° |
| 2026-04-25 22:07 | 18.49944 | -77.63205 | 37902 ft | 448 kts | 342° |
| 2026-04-25 22:08 | 18.56059 | -77.64453 | 37909 ft | 447 kts | 342° |
| 2026-04-25 22:08 | 18.62165 | -77.65700 | 37898 ft | 447 kts | 342° |
| 2026-04-25 22:09 | 18.68266 | -77.66947 | 37910 ft | 446 kts | 342° |
| 2026-04-25 22:09 | 18.74364 | -77.68194 | 37905 ft | 446 kts | 342° |
| 2026-04-25 22:10 | 18.80448 | -77.69440 | 37906 ft | 445 kts | 342° |
| 2026-04-25 22:10 | 18.86525 | -77.70684 | 37905 ft | 445 kts | 342° |
| 2026-04-25 22:11 | 18.92601 | -77.71930 | 37906 ft | 444 kts | 342° |
| 2026-04-25 22:11 | 18.98673 | -77.73176 | 37900 ft | 444 kts | 342° |
| 2026-04-25 22:12 | 19.04713 | -77.74416 | 37900 ft | 444 kts | 342° |
| 2026-04-25 22:12 | 19.09803 | -77.75462 | 37900 ft | 445 kts | 342° |
| 2026-04-25 22:13 | 19.16868 | -77.76914 | 37906 ft | 445 kts | 341° |
| 2026-04-25 22:13 | 19.22945 | -77.78165 | 37903 ft | 445 kts | 341° |
| 2026-04-25 22:14 | 19.29025 | -77.79417 | 37905 ft | 445 kts | 341° |
| 2026-04-25 22:14 | 19.35113 | -77.80671 | 37903 ft | 445 kts | 341° |
| 2026-04-25 22:15 | 19.41190 | -77.81924 | 37906 ft | 445 kts | 341° |
| 2026-04-25 22:16 | 19.50267 | -77.83798 | 37904 ft | 445 kts | 341° |
| 2026-04-25 22:16 | 19.56331 | -77.85050 | 37902 ft | 444 kts | 341° |
| 2026-04-25 22:17 | 19.62411 | -77.86307 | 37906 ft | 443 kts | 341° |
| 2026-04-25 22:17 | 19.68468 | -77.87560 | 37895 ft | 443 kts | 341° |
| 2026-04-25 22:18 | 19.74506 | -77.88811 | 37909 ft | 442 kts | 341° |
| 2026-04-25 22:18 | 19.80533 | -77.90060 | 37907 ft | 441 kts | 341° |
| 2026-04-25 22:19 | 19.86547 | -77.91307 | 37901 ft | 440 kts | 341° |
| 2026-04-25 22:19 | 19.92545 | -77.92552 | 37897 ft | 439 kts | 341° |
| 2026-04-25 22:20 | 19.98534 | -77.93796 | 37902 ft | 438 kts | 341° |
| 2026-04-25 22:20 | 20.04507 | -77.95038 | 37902 ft | 437 kts | 341° |
| 2026-04-25 22:21 | 20.10468 | -77.96278 | 37901 ft | 436 kts | 341° |
| 2026-04-25 22:21 | 20.16377 | -77.97508 | 37898 ft | 435 kts | 341° |
| 2026-04-25 22:22 | 20.22320 | -77.98747 | 37901 ft | 435 kts | 341° |
| 2026-04-25 22:22 | 20.28250 | -77.99984 | 37897 ft | 434 kts | 341° |
| 2026-04-25 22:23 | 20.34173 | -78.01220 | 37900 ft | 433 kts | 341° |
| 2026-04-25 22:23 | 20.40088 | -78.02455 | 37894 ft | 433 kts | 341° |
| 2026-04-25 22:24 | 20.45999 | -78.03691 | 37898 ft | 433 kts | 341° |
| 2026-04-25 22:24 | 20.51912 | -78.04928 | 37899 ft | 433 kts | 341° |
| 2026-04-25 22:25 | 20.57819 | -78.06165 | 37899 ft | 432 kts | 341° |
| 2026-04-25 22:25 | 20.63727 | -78.07403 | 37888 ft | 432 kts | 341° |
| 2026-04-25 22:26 | 20.69633 | -78.08641 | 37899 ft | 432 kts | 341° |
| 2026-04-25 22:26 | 20.75498 | -78.09872 | 37900 ft | 432 kts | 341° |
| 2026-04-25 22:27 | 20.81392 | -78.11110 | 37900 ft | 432 kts | 341° |
| 2026-04-25 22:27 | 20.87293 | -78.12350 | 37892 ft | 432 kts | 341° |
| 2026-04-25 22:28 | 20.93190 | -78.13591 | 37901 ft | 431 kts | 341° |
| 2026-04-25 22:28 | 20.98089 | -78.14622 | 37897 ft | 431 kts | 341° |
| 2026-04-25 22:29 | 21.03973 | -78.15861 | 37900 ft | 431 kts | 341° |
| 2026-04-25 22:29 | 21.09847 | -78.17099 | 37898 ft | 430 kts | 341° |
| 2026-04-25 22:30 | 21.18650 | -78.18957 | 37900 ft | 429 kts | 341° |
| 2026-04-25 22:30 | 21.23514 | -78.19984 | 37897 ft | 428 kts | 341° |
| 2026-04-25 22:31 | 21.30346 | -78.21429 | 37905 ft | 427 kts | 341° |
| 2026-04-25 22:31 | 21.36174 | -78.22662 | 37901 ft | 427 kts | 341° |
| 2026-04-25 22:32 | 21.41992 | -78.23894 | 37906 ft | 426 kts | 341° |
| 2026-04-25 22:32 | 21.47800 | -78.25125 | 37903 ft | 425 kts | 341° |
| 2026-04-25 22:33 | 21.53596 | -78.26354 | 37907 ft | 424 kts | 341° |
| 2026-04-25 22:33 | 21.59393 | -78.27585 | 37909 ft | 424 kts | 341° |
| 2026-04-25 22:34 | 21.65168 | -78.28812 | 37907 ft | 423 kts | 341° |
| 2026-04-25 22:34 | 21.70944 | -78.30041 | 37912 ft | 423 kts | 341° |
| 2026-04-25 22:35 | 21.76677 | -78.31261 | 37914 ft | 422 kts | 341° |
| 2026-04-25 22:35 | 21.82440 | -78.32488 | 37911 ft | 422 kts | 341° |
| 2026-04-25 22:36 | 21.88211 | -78.33719 | 37916 ft | 422 kts | 341° |
| 2026-04-25 22:36 | 21.93977 | -78.34949 | 37915 ft | 422 kts | 341° |
| 2026-04-25 22:37 | 21.99746 | -78.36181 | 37919 ft | 422 kts | 341° |
| 2026-04-25 22:37 | 22.05478 | -78.37406 | 37916 ft | 423 kts | 341° |
| 2026-04-25 22:38 | 22.11250 | -78.38640 | 37916 ft | 423 kts | 341° |
| 2026-04-25 22:38 | 22.17028 | -78.39877 | 37918 ft | 423 kts | 341° |
| 2026-04-25 22:39 | 22.22815 | -78.41117 | 37923 ft | 424 kts | 341° |
| 2026-04-25 22:39 | 22.28602 | -78.42358 | 37921 ft | 424 kts | 341° |
| 2026-04-25 22:40 | 22.34405 | -78.43603 | 37923 ft | 425 kts | 341° |
| 2026-04-25 22:40 | 22.40207 | -78.44849 | 37921 ft | 425 kts | 340° |
| 2026-04-25 22:41 | 22.46014 | -78.46097 | 37924 ft | 426 kts | 340° |
| 2026-04-25 22:41 | 22.51785 | -78.47339 | 37921 ft | 426 kts | 340° |
| 2026-04-25 22:42 | 22.57605 | -78.48592 | 37921 ft | 426 kts | 341° |
| 2026-04-25 22:42 | 22.63423 | -78.49845 | 37925 ft | 426 kts | 341° |
| 2026-04-25 22:43 | 22.69242 | -78.51100 | 37923 ft | 426 kts | 341° |
| 2026-04-25 22:43 | 22.75055 | -78.52355 | 37923 ft | 425 kts | 341° |
| 2026-04-25 22:44 | 22.80851 | -78.53607 | 37924 ft | 425 kts | 341° |
| 2026-04-25 22:44 | 22.86642 | -78.54859 | 37923 ft | 424 kts | 341° |
| 2026-04-25 22:45 | 22.92417 | -78.56109 | 37928 ft | 423 kts | 341° |
| 2026-04-25 22:45 | 22.98182 | -78.57358 | 37924 ft | 422 kts | 341° |
| 2026-04-25 22:46 | 23.03939 | -78.58606 | 37913 ft | 421 kts | 341° |
| 2026-04-25 22:46 | 23.09686 | -78.59853 | 37920 ft | 421 kts | 341° |
| 2026-04-25 22:47 | 23.15424 | -78.61100 | 37935 ft | 420 kts | 342° |
| 2026-04-25 22:47 | 23.21158 | -78.62346 | 37934 ft | 420 kts | 342° |
| 2026-04-25 22:48 | 23.26885 | -78.63592 | 37927 ft | 420 kts | 342° |
| 2026-04-25 22:48 | 23.32610 | -78.64839 | 37929 ft | 420 kts | 342° |
| 2026-04-25 22:50 | 23.50070 | -78.68649 | 37933 ft | 421 kts | 342° |
| 2026-04-25 22:50 | 23.55817 | -78.69905 | 37931 ft | 421 kts | 342° |
| 2026-04-25 22:51 | 23.61573 | -78.71164 | 37932 ft | 422 kts | 342° |
| 2026-04-25 22:51 | 23.67333 | -78.72425 | 37931 ft | 423 kts | 342° |
| 2026-04-25 22:52 | 23.73110 | -78.73691 | 37937 ft | 423 kts | 342° |
| 2026-04-25 22:52 | 23.77910 | -78.74744 | 37934 ft | 423 kts | 342° |
| 2026-04-25 22:53 | 23.84678 | -78.76230 | 37935 ft | 424 kts | 342° |
| 2026-04-25 22:53 | 23.90461 | -78.77501 | 37938 ft | 424 kts | 342° |
| 2026-04-25 22:54 | 23.96254 | -78.78775 | 37934 ft | 424 kts | 342° |
| 2026-04-25 22:54 | 24.01753 | -78.80734 | 37939 ft | 414 kts | 328° |
| 2026-04-25 22:55 | 24.06682 | -78.83925 | 37934 ft | 411 kts | 324° |
| 2026-04-25 22:55 | 24.11567 | -78.87205 | 37802 ft | 414 kts | 324° |
| 2026-04-25 22:56 | 24.14019 | -78.88844 | 37619 ft | 413 kts | 324° |
| 2026-04-25 22:56 | 24.16476 | -78.90477 | 37352 ft | 412 kts | 325° |
| 2026-04-25 22:56 | 24.18927 | -78.92104 | 36957 ft | 411 kts | 325° |
| 2026-04-25 22:56 | 24.21359 | -78.93714 | 36501 ft | 405 kts | 325° |
| 2026-04-25 22:57 | 24.23760 | -78.95302 | 36056 ft | 401 kts | 325° |
| 2026-04-25 22:57 | 24.26136 | -78.96876 | 35592 ft | 397 kts | 325° |
| 2026-04-25 22:57 | 24.28490 | -78.98436 | 35138 ft | 394 kts | 325° |
| 2026-04-25 22:57 | 24.30829 | -78.99987 | 34694 ft | 391 kts | 325° |
| 2026-04-25 22:58 | 24.33151 | -79.01529 | 34221 ft | 389 kts | 325° |
| 2026-04-25 22:58 | 24.35428 | -79.03040 | 33751 ft | 386 kts | 325° |
| 2026-04-25 22:58 | 24.37723 | -79.04565 | 33230 ft | 384 kts | 325° |
| 2026-04-25 22:58 | 24.40001 | -79.06079 | 32689 ft | 382 kts | 324° |
| 2026-04-25 22:59 | 24.42260 | -79.07580 | 32064 ft | 376 kts | 324° |
| 2026-04-25 22:59 | 24.44477 | -79.09053 | 31471 ft | 369 kts | 324° |
| 2026-04-25 22:59 | 24.46655 | -79.10501 | 30890 ft | 363 kts | 324° |
| 2026-04-25 22:59 | 24.48798 | -79.11927 | 30317 ft | 358 kts | 324° |
| 2026-04-25 23:00 | 24.50907 | -79.13333 | 29662 ft | 353 kts | 327° |
| 2026-04-25 23:00 | 24.53047 | -79.14763 | 29051 ft | 369 kts | 327° |
| 2026-04-25 23:00 | 24.55281 | -79.16254 | 28426 ft | 380 kts | 327° |
| 2026-04-25 23:00 | 24.57557 | -79.17771 | 27836 ft | 383 kts | 324° |
| 2026-04-25 23:01 | 24.59826 | -79.19282 | 27245 ft | 382 kts | 325° |
| 2026-04-25 23:01 | 24.62101 | -79.20800 | 26644 ft | 382 kts | 325° |
| 2026-04-25 23:01 | 24.63610 | -79.21809 | 26234 ft | 382 kts | 327° |
| 2026-04-25 23:01 | 24.65881 | -79.23326 | 25663 ft | 382 kts | 327° |
| 2026-04-25 23:02 | 24.68159 | -79.24847 | 25105 ft | 383 kts | 327° |
| 2026-04-25 23:02 | 24.70436 | -79.26368 | 24557 ft | 383 kts | 327° |
| 2026-04-25 23:02 | 24.72709 | -79.27888 | 24015 ft | 383 kts | 327° |
| 2026-04-25 23:02 | 24.74985 | -79.29411 | 23471 ft | 382 kts | 327° |
| 2026-04-25 23:03 | 24.77254 | -79.30930 | 22838 ft | 382 kts | 327° |
| 2026-04-25 23:03 | 24.79522 | -79.32447 | 22216 ft | 381 kts | 327° |
| 2026-04-25 23:03 | 24.81783 | -79.33962 | 21606 ft | 380 kts | 327° |
| 2026-04-25 23:03 | 24.84034 | -79.35470 | 21013 ft | 378 kts | 327° |
| 2026-04-25 23:04 | 24.86281 | -79.36976 | 20429 ft | 377 kts | 327° |
| 2026-04-25 23:04 | 24.88515 | -79.38474 | 19858 ft | 376 kts | 327° |
| 2026-04-25 23:04 | 24.90695 | -79.39937 | 19303 ft | 374 kts | 327° |
| 2026-04-25 23:04 | 24.92963 | -79.41460 | 18750 ft | 373 kts | 327° |
| 2026-04-25 23:05 | 24.95162 | -79.42937 | 18388 ft | 366 kts | 327° |
| 2026-04-25 23:05 | 24.97292 | -79.44367 | 18196 ft | 354 kts | 327° |
| 2026-04-25 23:05 | 24.99377 | -79.45768 | 17974 ft | 344 kts | 327° |
| 2026-04-25 23:05 | 25.01402 | -79.47131 | 17759 ft | 337 kts | 327° |
| 2026-04-25 23:06 | 25.03365 | -79.48453 | 17550 ft | 334 kts | 327° |
| 2026-04-25 23:06 | 25.05391 | -79.49817 | 17358 ft | 340 kts | 327° |
| 2026-04-25 23:06 | 25.07420 | -79.51185 | 17158 ft | 343 kts | 327° |
| 2026-04-25 23:06 | 25.09456 | -79.52556 | 16953 ft | 342 kts | 327° |
| 2026-04-25 23:07 | 25.11454 | -79.53901 | 16754 ft | 340 kts | 327° |
| 2026-04-25 23:07 | 25.13494 | -79.55276 | 16549 ft | 339 kts | 327° |
| 2026-04-25 23:07 | 25.15501 | -79.56629 | 16351 ft | 337 kts | 327° |
| 2026-04-25 23:07 | 25.17476 | -79.57961 | 16156 ft | 336 kts | 327° |
| 2026-04-25 23:08 | 25.19472 | -79.59308 | 16029 ft | 339 kts | 327° |
| 2026-04-25 23:08 | 25.21504 | -79.60680 | 15993 ft | 345 kts | 327° |
| 2026-04-25 23:08 | 25.23553 | -79.62065 | 15973 ft | 345 kts | 327° |
| 2026-04-25 23:08 | 25.25595 | -79.63444 | 15966 ft | 344 kts | 327° |
| 2026-04-25 23:09 | 25.27631 | -79.64821 | 15966 ft | 344 kts | 327° |
| 2026-04-25 23:09 | 25.29672 | -79.66201 | 15967 ft | 344 kts | 327° |
| 2026-04-25 23:09 | 25.31712 | -79.67582 | 15966 ft | 344 kts | 327° |
| 2026-04-25 23:09 | 25.33753 | -79.68963 | 15967 ft | 344 kts | 327° |
| 2026-04-25 23:10 | 25.35793 | -79.70344 | 15980 ft | 344 kts | 327° |
| 2026-04-25 23:10 | 25.37790 | -79.71790 | 15920 ft | 344 kts | 321° |
| 2026-04-25 23:10 | 25.39513 | -79.73519 | 15700 ft | 342 kts | 312° |
| 2026-04-25 23:10 | 25.40974 | -79.75589 | 15445 ft | 340 kts | 305° |
| 2026-04-25 23:11 | 25.42323 | -79.77725 | 15153 ft | 337 kts | 305° |
| 2026-04-25 23:11 | 25.43649 | -79.79841 | 14863 ft | 333 kts | 305° |
| 2026-04-25 23:11 | 25.44971 | -79.81928 | 14578 ft | 329 kts | 306° |
| 2026-04-25 23:11 | 25.46288 | -79.83991 | 14284 ft | 327 kts | 306° |
| 2026-04-25 23:12 | 25.47603 | -79.86041 | 13938 ft | 327 kts | 306° |
| 2026-04-25 23:12 | 25.48919 | -79.88094 | 13551 ft | 324 kts | 306° |
| 2026-04-25 23:12 | 25.50212 | -79.90112 | 13185 ft | 320 kts | 306° |
| 2026-04-25 23:12 | 25.51492 | -79.92110 | 12795 ft | 316 kts | 306° |
| 2026-04-25 23:13 | 25.52734 | -79.94050 | 12428 ft | 313 kts | 306° |
| 2026-04-25 23:13 | 25.53983 | -79.96004 | 12050 ft | 310 kts | 306° |
| 2026-04-25 23:13 | 25.55226 | -79.97947 | 11680 ft | 308 kts | 306° |
| 2026-04-25 23:13 | 25.56439 | -79.99844 | 11316 ft | 302 kts | 306° |
| 2026-04-25 23:14 | 25.57648 | -80.01736 | 10932 ft | 292 kts | 306° |
| 2026-04-25 23:14 | 25.58790 | -80.03523 | 10575 ft | 284 kts | 306° |
| 2026-04-25 23:14 | 25.59914 | -80.05285 | 10221 ft | 278 kts | 306° |
| 2026-04-25 23:14 | 25.61023 | -80.07022 | 9871 ft | 276 kts | 306° |
| 2026-04-25 23:15 | 25.62129 | -80.08754 | 9495 ft | 275 kts | 306° |
| 2026-04-25 23:15 | 25.63229 | -80.10479 | 9105 ft | 273 kts | 306° |
| 2026-04-25 23:15 | 25.64317 | -80.12185 | 8723 ft | 268 kts | 306° |
| 2026-04-25 23:15 | 25.64325 | -80.12199 | 8720 ft | 268 kts | 306° |
| 2026-04-25 23:16 | 25.64626 | -80.12670 | 8612 ft | 266 kts | 306° |
| 2026-04-25 23:16 | 25.65655 | -80.14350 | 8234 ft | 261 kts | 300° |
| 2026-04-25 23:16 | 25.66453 | -80.16140 | 7873 ft | 257 kts | 295° |
| 2026-04-25 23:16 | 25.67181 | -80.17930 | 7504 ft | 253 kts | 295° |
| 2026-04-25 23:17 | 25.67904 | -80.19690 | 7138 ft | 250 kts | 295° |
| 2026-04-25 23:17 | 25.68632 | -80.21432 | 6787 ft | 247 kts | 295° |
| 2026-04-25 23:17 | 25.69350 | -80.23144 | 6426 ft | 244 kts | 295° |
| 2026-04-25 23:17 | 25.70066 | -80.24838 | 6056 ft | 242 kts | 295° |
| 2026-04-25 23:18 | 25.70779 | -80.26520 | 5692 ft | 240 kts | 295° |
| 2026-04-25 23:18 | 25.71241 | -80.28204 | 5282 ft | 238 kts | 271° |
| 2026-04-25 23:18 | 25.71165 | -80.30091 | 4911 ft | 236 kts | 266° |
| 2026-04-25 23:18 | 25.71068 | -80.31906 | 4516 ft | 235 kts | 266° |
| 2026-04-25 23:19 | 25.70976 | -80.33717 | 4117 ft | 235 kts | 266° |
| 2026-04-25 23:19 | 25.70893 | -80.35523 | 3727 ft | 234 kts | 266° |
| 2026-04-25 23:19 | 25.70837 | -80.37332 | 3340 ft | 235 kts | 266° |
| 2026-04-25 23:19 | 25.70787 | -80.39129 | 3041 ft | 230 kts | 266° |
| 2026-04-25 23:20 | 25.70748 | -80.40827 | 3018 ft | 210 kts | 267° |
| 2026-04-25 23:20 | 25.70716 | -80.42387 | 2979 ft | 197 kts | 267° |
| 2026-04-25 23:20 | 25.70696 | -80.43890 | 2983 ft | 194 kts | 267° |
| 2026-04-25 23:20 | 25.70671 | -80.45388 | 2998 ft | 195 kts | 267° |
| 2026-04-25 23:21 | 25.70645 | -80.46904 | 3001 ft | 198 kts | 266° |
| 2026-04-25 23:21 | 25.70619 | -80.48439 | 3007 ft | 200 kts | 267° |
| 2026-04-25 23:21 | 25.70590 | -80.49990 | 3005 ft | 201 kts | 266° |
| 2026-04-25 23:21 | 25.70827 | -80.51473 | 2981 ft | 199 kts | 301° |
| 2026-04-25 23:22 | 25.71664 | -80.52669 | 2991 ft | 197 kts | 312° |
| 2026-04-25 23:22 | 25.72804 | -80.53507 | 3035 ft | 198 kts | 334° |
| 2026-04-25 23:22 | 25.74065 | -80.54171 | 3001 ft | 202 kts | 336° |
| 2026-04-25 23:23 | 25.76636 | -80.53901 | 2972 ft | 189 kts | 46° |
| 2026-04-25 23:23 | 25.77287 | -80.52683 | 2998 ft | 187 kts | 77° |
| 2026-04-25 23:23 | 25.77472 | -80.51269 | 3004 ft | 184 kts | 87° |
| 2026-04-25 23:23 | 25.77577 | -80.49900 | 2993 ft | 171 kts | 86° |
| 2026-04-25 23:24 | 25.77681 | -80.48625 | 2983 ft | 162 kts | 88° |
| 2026-04-25 23:24 | 25.77773 | -80.47344 | 2853 ft | 172 kts | 88° |
| 2026-04-25 23:24 | 25.77868 | -80.46005 | 2620 ft | 174 kts | 88° |
| 2026-04-25 23:24 | 25.77965 | -80.44703 | 2383 ft | 167 kts | 88° |
| 2026-04-25 23:25 | 25.78063 | -80.43465 | 2167 ft | 157 kts | 87° |
| 2026-04-25 23:25 | 25.78158 | -80.42286 | 1974 ft | 147 kts | 88° |
| 2026-04-25 23:25 | 25.78248 | -80.41184 | 1803 ft | 146 kts | 87° |
| 2026-04-25 23:25 | 25.78327 | -80.40070 | 1601 ft | 143 kts | 88° |
| 2026-04-25 23:26 | 25.78412 | -80.38974 | 1438 ft | 141 kts | 87° |
| 2026-04-25 23:26 | 25.78442 | -80.37922 | 1300 ft | 136 kts | 96° |
| 2026-04-25 23:26 | 25.78407 | -80.36845 | 1065 ft | 139 kts | 92° |
| 2026-04-25 23:26 | 25.78420 | -80.35780 | 935 ft | 139 kts | 91° |
| 2026-04-25 23:27 | 25.78482 | -80.34701 | 744 ft | 139 kts | 88° |
| 2026-04-25 23:27 | 25.78533 | -80.33637 | 512 ft | 137 kts | 90° |
| 2026-04-25 23:27 | 25.78565 | -80.32602 | 319 ft | 132 kts | 89° |
| 2026-04-25 23:27 | 25.78613 | -80.31601 | 142 ft | 130 kts | 87° |
| 2026-04-25 23:28 | 25.78651 | -80.30608 | 27 ft | 125 kts | 88° |
| 2026-04-25 23:28 | 25.78685 | -80.29729 | 18 ft | 92 kts | 87° |
| 2026-04-25 23:28 | 25.78703 | -80.29300 | 18 ft | 21 kts | 87° |
| 2026-04-25 23:28 | 25.78707 | -80.29217 | 18 ft | 11 kts | 85° |
| 2026-04-25 23:29 | 25.78718 | -80.29127 | 17 ft | 13 kts | 82° |
| 2026-04-25 23:29 | 25.78726 | -80.29010 | 16 ft | 17 kts | 89° |
| 2026-04-25 23:29 | 25.78725 | -80.28865 | 17 ft | 20 kts | 80° |
| 2026-04-25 23:29 | 25.78788 | -80.28723 | 16 ft | 21 kts | 51° |
| 2026-04-25 23:30 | 25.78861 | -80.28641 | 15 ft | 11 kts | 48° |
| 2026-04-25 23:30 | 25.78870 | -80.28627 | 15 ft | 0 kts | 56° |
| 2026-04-25 23:30 | 25.78874 | -80.28613 | 17 ft | 4 kts | 74° |
| 2026-04-25 23:30 | 25.78878 | -80.28582 | 16 ft | 4 kts | 84° |
| 2026-04-25 23:31 | 25.78881 | -80.28550 | 17 ft | 4 kts | 84° |
| 2026-04-25 23:31 | 25.78883 | -80.28514 | 18 ft | 7 kts | 90° |
| 2026-04-25 23:31 | 25.78883 | -80.28459 | 18 ft | 7 kts | 90° |
| 2026-04-25 23:31 | 25.78885 | -80.28417 | 21 ft | 2 kts | 86° |
| 2026-04-25 23:32 | 25.78887 | -80.28367 | 18 ft | 11 kts | 86° |
| 2026-04-25 23:32 | 25.78893 | -80.28275 | 17 ft | 12 kts | 86° |
| 2026-04-25 23:32 | 25.78899 | -80.28182 | 20 ft | 12 kts | 85° |
| 2026-04-25 23:32 | 25.78946 | -80.28124 | 20 ft | 12 kts | 351° |
| 2026-04-25 23:33 | 25.79023 | -80.28151 | 21 ft | 11 kts | 344° |
| 2026-04-25 23:33 | 25.79069 | -80.28184 | 22 ft | 6 kts | 307° |
| 2026-04-25 23:33 | 25.79093 | -80.28219 | 22 ft | 6 kts | 307° |
| 2026-04-25 23:33 | 25.79118 | -80.28254 | 23 ft | 6 kts | 307° |
| 2026-04-25 23:34 | 25.79140 | -80.28298 | 21 ft | 8 kts | 297° |
| 2026-04-25 23:34 | 25.79152 | -80.28326 | 20 ft | 9 kts | 297° |